createdAt,value
2019-05-19T00:00:07.738Z,1003.68
2019-05-19T00:01:07.766Z,1003.67
2019-05-19T00:02:07.711Z,1003.73
2019-05-19T00:03:07.716Z,1003.70
2019-05-19T00:04:07.763Z,1003.73
2019-05-19T00:05:07.684Z,1003.73
2019-05-19T00:06:07.677Z,1003.74
2019-05-19T00:07:07.671Z,1003.73
2019-05-19T00:08:07.655Z,1003.74
2019-05-19T00:09:07.660Z,1003.70
2019-05-19T00:10:07.643Z,1003.73
2019-05-19T00:11:07.621Z,1003.74
2019-05-19T00:12:07.619Z,1003.74
2019-05-19T00:13:07.605Z,1003.74
2019-05-19T00:14:07.620Z,1003.74
2019-05-19T00:15:07.583Z,1003.78
2019-05-19T00:16:07.568Z,1003.77
2019-05-19T00:17:07.553Z,1003.77
2019-05-19T00:18:07.547Z,1003.80
2019-05-19T00:19:07.560Z,1003.76
2019-05-19T00:20:07.569Z,1003.77
2019-05-19T00:21:07.509Z,1003.79
2019-05-19T00:22:07.497Z,1003.82
2019-05-19T00:23:07.496Z,1003.79
2019-05-19T00:24:07.485Z,1003.81
2019-05-19T00:25:07.577Z,1003.81
2019-05-19T00:26:07.464Z,1003.86
2019-05-19T00:27:07.451Z,1003.79
2019-05-19T00:28:07.437Z,1003.86
2019-05-19T00:29:07.433Z,1003.82
2019-05-19T00:30:07.449Z,1003.87
2019-05-19T00:31:07.407Z,1003.79
2019-05-19T00:32:07.407Z,1003.80
2019-05-19T00:33:07.386Z,1003.81
2019-05-19T00:34:07.369Z,1003.78
2019-05-19T00:35:07.387Z,1003.83
2019-05-19T00:36:07.354Z,1003.78
2019-05-19T00:37:07.355Z,1003.79
2019-05-19T00:38:07.326Z,1003.80
2019-05-19T00:39:07.314Z,1003.77
2019-05-19T00:40:07.380Z,1003.76
2019-05-19T00:41:07.298Z,1003.80
2019-05-19T00:42:07.308Z,1003.78
2019-05-19T00:43:07.283Z,1003.75
2019-05-19T00:44:07.263Z,1003.78
2019-05-19T00:45:07.264Z,1003.77
2019-05-19T00:46:07.239Z,1003.80
2019-05-19T00:47:07.258Z,1003.73
2019-05-19T00:48:07.236Z,1003.74
2019-05-19T00:49:07.224Z,1003.72
2019-05-19T00:50:07.225Z,1003.73
2019-05-19T00:51:07.183Z,1003.66
2019-05-19T00:52:07.172Z,1003.65
2019-05-19T00:53:07.163Z,1003.67
2019-05-19T00:54:07.168Z,1003.62
2019-05-19T00:55:07.174Z,1003.62
2019-05-19T00:56:07.132Z,1003.66
2019-05-19T00:57:07.151Z,1003.66
2019-05-19T00:58:07.117Z,1003.65
2019-05-19T00:59:07.102Z,1003.68
2019-05-19T01:00:07.107Z,1003.71
2019-05-19T01:01:07.082Z,1003.69
2019-05-19T01:02:07.089Z,1003.67
2019-05-19T01:03:07.064Z,1003.67
2019-05-19T01:04:07.058Z,1003.67
2019-05-19T01:05:07.078Z,1003.65
2019-05-19T01:06:07.036Z,1003.63
2019-05-19T01:07:07.044Z,1003.64
2019-05-19T01:08:07.007Z,1003.62
2019-05-19T01:09:06.996Z,1003.61
2019-05-19T01:10:07.012Z,1003.67
2019-05-19T01:11:06.983Z,1003.64
2019-05-19T01:12:06.986Z,1003.64
2019-05-19T01:13:06.954Z,1003.62
2019-05-19T01:14:16.257Z,1003.63
2019-05-19T01:15:15.301Z,1003.60
2019-05-19T01:16:15.818Z,1003.62
2019-05-19T01:17:15.261Z,1003.63
2019-05-19T01:18:15.288Z,1003.61
2019-05-19T01:19:15.934Z,1003.56
2019-05-19T01:20:15.249Z,1003.60
2019-05-19T01:21:16.472Z,1003.61
2019-05-19T01:22:15.451Z,1003.59
2019-05-19T01:23:16.526Z,1003.58
2019-05-19T01:24:18.068Z,1003.59
2019-05-19T01:25:06.819Z,1003.59
2019-05-19T01:26:06.824Z,1003.61
2019-05-19T01:27:07.089Z,1003.60
2019-05-19T01:28:06.819Z,1003.59
2019-05-19T01:29:06.791Z,1003.64
2019-05-19T01:30:06.804Z,1003.58
2019-05-19T01:31:06.779Z,1003.61
2019-05-19T01:32:06.745Z,1003.63
2019-05-19T01:33:06.734Z,1003.59
2019-05-19T01:34:06.728Z,1003.61
2019-05-19T01:35:06.724Z,1003.57
2019-05-19T01:36:06.739Z,1003.61
2019-05-19T01:37:06.706Z,1003.57
2019-05-19T01:38:06.679Z,1003.58
2019-05-19T01:39:06.670Z,1003.59
2019-05-19T01:40:06.673Z,1003.60
2019-05-19T01:41:06.675Z,1003.55
2019-05-19T01:42:06.638Z,1003.54
2019-05-19T01:43:06.623Z,1003.52
2019-05-19T01:44:06.627Z,1003.52
2019-05-19T01:45:06.614Z,1003.55
2019-05-19T01:46:06.613Z,1003.53
2019-05-19T01:47:06.612Z,1003.55
2019-05-19T01:48:06.589Z,1003.55
2019-05-19T01:49:06.566Z,1003.54
2019-05-19T01:50:17.723Z,1003.55
2019-05-19T01:51:07.568Z,1003.53
2019-05-19T01:52:06.535Z,1003.55
2019-05-19T01:53:06.524Z,1003.51
2019-05-19T01:54:06.510Z,1003.52
2019-05-19T01:55:06.496Z,1003.49
2019-05-19T01:56:06.511Z,1003.47
2019-05-19T01:57:06.498Z,1003.50
2019-05-19T01:58:06.479Z,1003.50
2019-05-19T01:59:06.463Z,1003.46
2019-05-19T02:00:06.441Z,1003.44
2019-05-19T02:01:06.461Z,1003.48
2019-05-19T02:02:06.425Z,1003.45
2019-05-19T02:03:06.420Z,1003.47
2019-05-19T02:04:06.416Z,1003.46
2019-05-19T02:05:06.386Z,1003.46
2019-05-19T02:06:06.412Z,1003.47
2019-05-19T02:07:06.372Z,1003.50
2019-05-19T02:08:06.357Z,1003.48
2019-05-19T02:09:06.357Z,1003.51
2019-05-19T02:10:06.335Z,1003.49
2019-05-19T02:11:06.376Z,1003.45
2019-05-19T02:12:06.321Z,1003.45
2019-05-19T02:13:06.308Z,1003.46
2019-05-19T02:14:06.294Z,1003.42
2019-05-19T02:15:06.288Z,1003.47
2019-05-19T02:16:06.299Z,1003.44
2019-05-19T02:17:06.321Z,1003.44
2019-05-19T02:18:06.251Z,1003.42
2019-05-19T02:19:06.241Z,1003.40
2019-05-19T02:20:06.234Z,1003.42
2019-05-19T02:21:06.228Z,1003.41
2019-05-19T02:22:06.230Z,1003.41
2019-05-19T02:23:06.203Z,1003.40
2019-05-19T02:24:06.186Z,1003.43
2019-05-19T02:25:06.170Z,1003.41
2019-05-19T02:26:06.168Z,1003.40
2019-05-19T02:27:06.174Z,1003.41
2019-05-19T02:28:06.152Z,1003.42
2019-05-19T02:29:06.128Z,1003.44
2019-05-19T02:30:06.123Z,1003.41
2019-05-19T02:31:06.111Z,1003.44
2019-05-19T02:32:06.127Z,1003.47
2019-05-19T02:33:06.089Z,1003.41
2019-05-19T02:34:06.075Z,1003.45
2019-05-19T02:35:06.063Z,1003.48
2019-05-19T02:36:06.055Z,1003.44
2019-05-19T02:37:06.049Z,1003.47
2019-05-19T02:38:06.061Z,1003.44
2019-05-19T02:39:06.032Z,1003.44
2019-05-19T02:40:06.008Z,1003.42
2019-05-19T02:41:06.007Z,1003.42
2019-05-19T02:42:06.021Z,1003.45
2019-05-19T02:43:06.015Z,1003.50
2019-05-19T02:44:05.971Z,1003.48
2019-05-19T02:45:05.972Z,1003.45
2019-05-19T02:46:05.945Z,1003.45
2019-05-19T02:47:05.949Z,1003.51
2019-05-19T02:48:05.923Z,1003.51
2019-05-19T02:49:05.924Z,1003.51
2019-05-19T02:50:05.911Z,1003.47
2019-05-19T02:51:05.906Z,1003.51
2019-05-19T02:52:05.910Z,1003.45
2019-05-19T02:53:05.877Z,1003.47
2019-05-19T02:54:05.868Z,1003.53
2019-05-19T02:55:05.880Z,1003.48
2019-05-19T02:56:05.858Z,1003.51
2019-05-19T02:57:05.846Z,1003.50
2019-05-19T02:58:05.811Z,1003.46
2019-05-19T02:59:05.803Z,1003.46
2019-05-19T03:00:05.794Z,1003.42
2019-05-19T03:01:05.798Z,1003.43
2019-05-19T03:02:05.806Z,1003.43
2019-05-19T03:03:05.770Z,1003.42
2019-05-19T03:04:05.754Z,1003.46
2019-05-19T03:05:05.741Z,1003.41
2019-05-19T03:06:05.734Z,1003.42
2019-05-19T03:07:05.906Z,1003.40
2019-05-19T03:08:05.711Z,1003.39
2019-05-19T03:09:05.711Z,1003.36
2019-05-19T03:10:05.692Z,1003.34
2019-05-19T03:11:05.678Z,1003.31
2019-05-19T03:12:05.685Z,1003.33
2019-05-19T03:13:05.659Z,1003.25
2019-05-19T03:14:05.647Z,1003.32
2019-05-19T03:15:05.647Z,1003.31
2019-05-19T03:16:05.634Z,1003.32
2019-05-19T03:17:05.641Z,1003.33
2019-05-19T03:18:05.637Z,1003.37
2019-05-19T03:19:05.590Z,1003.38
2019-05-19T03:20:05.595Z,1003.37
2019-05-19T03:21:10.797Z,1003.38
2019-05-19T03:22:06.566Z,1003.36
2019-05-19T03:23:05.571Z,1003.39
2019-05-19T03:24:05.539Z,1003.42
2019-05-19T03:25:05.526Z,1003.40
2019-05-19T03:26:05.521Z,1003.44
2019-05-19T03:27:05.525Z,1003.43
2019-05-19T03:28:05.518Z,1003.47
2019-05-19T03:29:05.483Z,1003.48
2019-05-19T03:30:05.495Z,1003.48
2019-05-19T03:31:05.493Z,1003.51
2019-05-19T03:32:11.807Z,1003.52
2019-05-19T03:33:06.494Z,1003.48
2019-05-19T03:34:05.437Z,1003.53
2019-05-19T03:35:05.462Z,1003.51
2019-05-19T03:36:05.418Z,1003.53
2019-05-19T03:37:05.399Z,1003.56
2019-05-19T03:38:05.407Z,1003.52
2019-05-19T03:39:05.373Z,1003.61
2019-05-19T03:40:05.367Z,1003.52
2019-05-19T03:41:05.370Z,1003.57
2019-05-19T03:42:05.367Z,1003.54
2019-05-19T03:43:05.360Z,1003.54
2019-05-19T03:44:05.320Z,1003.55
2019-05-19T03:45:05.306Z,1003.57
2019-05-19T03:46:05.300Z,1003.58
2019-05-19T03:47:05.285Z,1003.59
2019-05-19T03:48:05.311Z,1003.59
2019-05-19T03:49:05.282Z,1003.59
2019-05-19T03:50:05.266Z,1003.59
2019-05-19T03:51:05.242Z,1003.59
2019-05-19T03:52:05.240Z,1003.58
2019-05-19T03:53:05.263Z,1003.60
2019-05-19T03:54:05.211Z,1003.61
2019-05-19T03:55:05.220Z,1003.62
2019-05-19T03:56:05.204Z,1003.60
2019-05-19T03:57:05.183Z,1003.57
2019-05-19T03:58:05.196Z,1003.57
2019-05-19T03:59:05.166Z,1003.56
2019-05-19T04:00:05.145Z,1003.53
2019-05-19T04:01:05.133Z,1003.55
2019-05-19T04:02:05.151Z,1003.50
2019-05-19T04:03:05.122Z,1003.53
2019-05-19T04:04:05.130Z,1003.56
2019-05-19T04:05:05.100Z,1003.58
2019-05-19T04:06:05.084Z,1003.58
2019-05-19T04:07:05.088Z,1003.58
2019-05-19T04:08:05.058Z,1003.62
2019-05-19T04:09:05.104Z,1003.58
2019-05-19T04:10:05.052Z,1003.67
2019-05-19T04:11:05.027Z,1003.63
2019-05-19T04:12:05.028Z,1003.62
2019-05-19T04:13:05.039Z,1003.67
2019-05-19T04:14:05.025Z,1003.63
2019-05-19T04:15:05.046Z,1003.67
2019-05-19T04:16:04.973Z,1003.65
2019-05-19T04:17:04.982Z,1003.66
2019-05-19T04:18:04.956Z,1003.69
2019-05-19T04:19:04.966Z,1003.71
2019-05-19T04:20:04.935Z,1003.66
2019-05-19T04:21:04.919Z,1003.70
2019-05-19T04:22:04.924Z,1003.70
2019-05-19T04:23:04.898Z,1003.71
2019-05-19T04:24:04.908Z,1003.74
2019-05-19T04:25:04.887Z,1003.72
2019-05-19T04:26:04.868Z,1003.75
2019-05-19T04:27:04.909Z,1003.73
2019-05-19T04:28:04.856Z,1003.77
2019-05-19T04:29:04.851Z,1003.75
2019-05-19T04:30:04.831Z,1003.76
2019-05-19T04:31:04.814Z,1003.75
2019-05-19T04:32:04.806Z,1003.79
2019-05-19T04:33:04.815Z,1003.79
2019-05-19T04:34:04.802Z,1003.78
2019-05-19T04:35:04.767Z,1003.81
2019-05-19T04:36:04.758Z,1003.81
2019-05-19T04:37:04.749Z,1003.81
2019-05-19T04:38:04.744Z,1003.80
2019-05-19T04:39:04.755Z,1003.74
2019-05-19T04:40:04.716Z,1003.77
2019-05-19T04:41:04.704Z,1003.76
2019-05-19T04:42:04.691Z,1003.74
2019-05-19T04:43:04.702Z,1003.76
2019-05-19T04:44:04.704Z,1003.75
2019-05-19T04:45:04.669Z,1003.74
2019-05-19T04:46:04.656Z,1003.74
2019-05-19T04:47:04.662Z,1003.74
2019-05-19T04:48:08.678Z,1003.71
2019-05-19T04:49:04.652Z,1003.73
2019-05-19T04:50:04.606Z,1003.74
2019-05-19T04:51:04.601Z,1003.69
2019-05-19T04:52:07.079Z,1003.69
2019-05-19T04:53:04.582Z,1003.68
2019-05-19T04:54:04.660Z,1003.68
2019-05-19T04:55:04.571Z,1003.67
2019-05-19T04:56:04.541Z,1003.67
2019-05-19T04:57:04.538Z,1003.69
2019-05-19T04:58:04.541Z,1003.67
2019-05-19T04:59:04.537Z,1003.70
2019-05-19T05:00:04.507Z,1003.69
2019-05-19T05:01:04.500Z,1003.72
2019-05-19T05:02:04.477Z,1003.71
2019-05-19T05:03:04.473Z,1003.69
2019-05-19T05:04:04.489Z,1003.62
2019-05-19T05:05:04.452Z,1003.64
2019-05-19T05:06:04.449Z,1003.62
2019-05-19T05:07:04.436Z,1003.65
2019-05-19T05:08:04.422Z,1003.63
2019-05-19T05:09:04.466Z,1003.65
2019-05-19T05:10:04.391Z,1003.67
2019-05-19T05:11:04.383Z,1003.67
2019-05-19T05:12:04.369Z,1003.61
2019-05-19T05:13:04.362Z,1003.59
2019-05-19T05:14:04.365Z,1003.53
2019-05-19T05:15:04.345Z,1003.58
2019-05-19T05:16:04.335Z,1003.58
2019-05-19T05:17:04.320Z,1003.57
2019-05-19T05:18:04.317Z,1003.56
2019-05-19T05:19:04.316Z,1003.57
2019-05-19T05:20:04.297Z,1003.49
2019-05-19T05:21:04.278Z,1003.54
2019-05-19T05:22:04.284Z,1003.58
2019-05-19T05:23:04.251Z,1003.57
2019-05-19T05:24:04.262Z,1003.53
2019-05-19T05:25:04.274Z,1003.55
2019-05-19T05:26:04.221Z,1003.55
2019-05-19T05:27:04.215Z,1003.58
2019-05-19T05:28:04.217Z,1003.55
2019-05-19T05:29:04.213Z,1003.54
2019-05-19T05:30:04.203Z,1003.51
2019-05-19T05:31:04.166Z,1003.53
2019-05-19T05:32:04.160Z,1003.57
2019-05-19T05:33:04.150Z,1003.61
2019-05-19T05:34:04.170Z,1003.65
2019-05-19T05:35:04.157Z,1003.68
2019-05-19T05:36:04.157Z,1003.71
2019-05-19T05:37:04.110Z,1003.72
2019-05-19T05:38:04.131Z,1003.69
2019-05-19T05:39:04.106Z,1003.66
2019-05-19T05:40:04.091Z,1003.68
2019-05-19T05:41:04.074Z,1003.70
2019-05-19T05:42:04.053Z,1003.70
2019-05-19T05:43:04.038Z,1003.73
2019-05-19T05:44:04.056Z,1003.67
2019-05-19T05:45:04.032Z,1003.73
2019-05-19T05:46:04.020Z,1003.72
2019-05-19T05:47:04.014Z,1003.69
2019-05-19T05:48:03.987Z,1003.72
2019-05-19T05:49:04.002Z,1003.69
2019-05-19T05:50:03.993Z,1003.63
2019-05-19T05:51:03.980Z,1003.67
2019-05-19T05:52:04.001Z,1003.66
2019-05-19T05:53:03.941Z,1003.64
2019-05-19T05:54:03.923Z,1003.67
2019-05-19T05:55:03.926Z,1003.67
2019-05-19T05:56:03.906Z,1003.68
2019-05-19T05:57:03.895Z,1003.71
2019-05-19T05:58:03.891Z,1003.74
2019-05-19T05:59:03.864Z,1003.70
2019-05-19T06:00:03.904Z,1003.72
2019-05-19T06:01:03.853Z,1003.72
2019-05-19T06:02:12.681Z,1003.68
2019-05-19T06:03:03.831Z,1003.72
2019-05-19T06:04:03.837Z,1003.67
2019-05-19T06:05:03.825Z,1003.69
2019-05-19T06:06:03.798Z,1003.66
2019-05-19T06:07:03.808Z,1003.70
2019-05-19T06:08:03.787Z,1003.65
2019-05-19T06:09:03.775Z,1003.67
2019-05-19T06:10:03.797Z,1003.69
2019-05-19T06:11:03.739Z,1003.71
2019-05-19T06:12:03.754Z,1003.74
2019-05-19T06:13:03.815Z,1003.74
2019-05-19T06:14:03.714Z,1003.68
2019-05-19T06:15:03.713Z,1003.71
2019-05-19T06:16:03.696Z,1003.67
2019-05-19T06:17:03.678Z,1003.73
2019-05-19T06:18:03.663Z,1003.71
2019-05-19T06:19:03.651Z,1003.73
2019-05-19T06:20:04.449Z,1003.75
2019-05-19T06:21:03.632Z,1003.76
2019-05-19T06:22:03.624Z,1003.77
2019-05-19T06:23:03.611Z,1003.80
2019-05-19T06:24:03.601Z,1003.77
2019-05-19T06:25:03.620Z,1003.74
2019-05-19T06:26:03.586Z,1003.75
2019-05-19T06:27:03.583Z,1003.75
2019-05-19T06:28:03.557Z,1003.76
2019-05-19T06:29:03.549Z,1003.73
2019-05-19T06:30:03.551Z,1003.76
2019-05-19T06:31:03.542Z,1003.79
2019-05-19T06:32:03.523Z,1003.77
2019-05-19T06:33:03.521Z,1003.80
2019-05-19T06:34:03.497Z,1003.80
2019-05-19T06:35:03.528Z,1003.77
2019-05-19T06:36:03.714Z,1003.77
2019-05-19T06:37:03.458Z,1003.79
2019-05-19T06:38:03.612Z,1003.74
2019-05-19T06:39:03.456Z,1003.72
2019-05-19T06:40:03.465Z,1003.73
2019-05-19T06:41:03.424Z,1003.68
2019-05-19T06:42:03.422Z,1003.74
2019-05-19T06:43:03.400Z,1003.68
2019-05-19T06:44:03.597Z,1003.67
2019-05-19T06:45:03.411Z,1003.70
2019-05-19T06:46:03.386Z,1003.64
2019-05-19T06:47:03.361Z,1003.63
2019-05-19T06:48:03.349Z,1003.64
2019-05-19T06:49:03.331Z,1003.62
2019-05-19T06:50:03.384Z,1003.60
2019-05-19T06:51:03.316Z,1003.61
2019-05-19T06:52:03.310Z,1003.63
2019-05-19T06:53:13.713Z,1003.61
2019-05-19T06:54:04.285Z,1003.54
2019-05-19T06:55:03.297Z,1003.56
2019-05-19T06:56:03.266Z,1003.55
2019-05-19T06:57:03.257Z,1003.53
2019-05-19T06:58:03.238Z,1003.57
2019-05-19T06:59:03.230Z,1003.57
2019-05-19T07:00:03.264Z,1003.54
2019-05-19T07:01:03.212Z,1003.60
2019-05-19T07:02:03.204Z,1003.59
2019-05-19T07:03:03.184Z,1003.56
2019-05-19T07:04:03.191Z,1003.59
2019-05-19T07:05:03.166Z,1003.58
2019-05-19T07:06:03.169Z,1003.60
2019-05-19T07:07:03.182Z,1003.57
2019-05-19T07:08:03.142Z,1003.56
2019-05-19T07:09:03.121Z,1003.61
2019-05-19T07:10:04.029Z,1003.52
2019-05-19T07:11:03.375Z,1003.58
2019-05-19T07:12:03.106Z,1003.56
2019-05-19T07:13:03.104Z,1003.48
2019-05-19T07:14:03.202Z,1003.50
2019-05-19T07:15:03.101Z,1003.54
2019-05-19T07:16:04.538Z,1003.55
2019-05-19T07:17:03.046Z,1003.51
2019-05-19T07:18:03.041Z,1003.54
2019-05-19T07:19:03.055Z,1003.50
2019-05-19T07:20:03.029Z,1003.53
2019-05-19T07:21:03.014Z,1003.50
2019-05-19T07:22:02.995Z,1003.51
2019-05-19T07:23:02.979Z,1003.44
2019-05-19T07:24:02.969Z,1003.46
2019-05-19T07:25:02.975Z,1003.48
2019-05-19T07:26:02.969Z,1003.49
2019-05-19T07:27:02.942Z,1003.48
2019-05-19T07:28:02.926Z,1003.51
2019-05-19T07:29:02.914Z,1003.49
2019-05-19T07:30:03.088Z,1003.48
2019-05-19T07:31:02.911Z,1003.47
2019-05-19T07:32:02.887Z,1003.47
2019-05-19T07:33:02.873Z,1003.52
2019-05-19T07:34:02.850Z,1003.45
2019-05-19T07:35:02.841Z,1003.49
2019-05-19T07:36:02.861Z,1003.49
2019-05-19T07:37:02.827Z,1003.50
2019-05-19T07:38:02.820Z,1003.49
2019-05-19T07:39:02.863Z,1003.47
2019-05-19T07:40:02.984Z,1003.47
2019-05-19T07:41:02.795Z,1003.51
2019-05-19T07:42:02.947Z,1003.48
2019-05-19T07:43:02.898Z,1003.50
2019-05-19T07:44:03.383Z,1003.48
2019-05-19T07:45:02.765Z,1003.48
2019-05-19T07:46:02.772Z,1003.52
2019-05-19T07:47:02.739Z,1003.48
2019-05-19T07:48:02.710Z,1003.49
2019-05-19T07:49:02.695Z,1003.48
2019-05-19T07:50:02.738Z,1003.47
2019-05-19T07:51:02.810Z,1003.51
2019-05-19T07:52:02.851Z,1003.51
2019-05-19T07:53:02.743Z,1003.45
2019-05-19T07:54:02.658Z,1003.44
2019-05-19T07:55:02.637Z,1003.48
2019-05-19T07:56:02.629Z,1003.45
2019-05-19T07:57:02.607Z,1003.46
2019-05-19T07:58:02.653Z,1003.42
2019-05-19T07:59:02.601Z,1003.46
2019-05-19T08:00:02.640Z,1003.44
2019-05-19T08:01:02.577Z,1003.47
2019-05-19T08:02:02.575Z,1003.44
2019-05-19T08:03:02.686Z,1003.40
2019-05-19T08:04:02.541Z,1003.39
2019-05-19T08:05:03.296Z,1003.41
2019-05-19T08:06:02.789Z,1003.40
2019-05-19T08:07:02.504Z,1003.37
2019-05-19T08:08:02.505Z,1003.39
2019-05-19T08:09:02.479Z,1003.38
2019-05-19T08:10:02.517Z,1003.33
2019-05-19T08:11:02.495Z,1003.37
2019-05-19T08:12:02.477Z,1003.34
2019-05-19T08:13:02.451Z,1003.28
2019-05-19T08:14:02.498Z,1003.32
2019-05-19T08:15:02.474Z,1003.30
2019-05-19T08:16:02.420Z,1003.22
2019-05-19T08:17:02.434Z,1003.30
2019-05-19T08:18:02.394Z,1003.28
2019-05-19T08:19:02.392Z,1003.24
2019-05-19T08:20:02.379Z,1003.27
2019-05-19T08:21:02.354Z,1003.28
2019-05-19T08:22:02.431Z,1003.20
2019-05-19T08:23:02.370Z,1003.22
2019-05-19T08:24:02.402Z,1003.20
2019-05-19T08:25:03.304Z,1003.25
2019-05-19T08:26:02.317Z,1003.22
2019-05-19T08:27:02.671Z,1003.27
2019-05-19T08:28:08.536Z,1003.25
2019-05-19T08:29:03.388Z,1003.27
2019-05-19T08:30:02.943Z,1003.18
2019-05-19T08:31:02.249Z,1003.19
2019-05-19T08:32:02.265Z,1003.23
2019-05-19T08:33:02.222Z,1003.16
2019-05-19T08:34:02.361Z,1003.14
2019-05-19T08:35:04.393Z,1003.09
2019-05-19T08:36:02.447Z,1003.10
2019-05-19T08:37:02.223Z,1003.07
2019-05-19T08:38:02.193Z,1003.10
2019-05-19T08:39:02.157Z,1003.06
2019-05-19T08:40:02.182Z,1003.08
2019-05-19T08:41:02.154Z,1003.07
2019-05-19T08:42:02.126Z,1003.12
2019-05-19T08:43:02.153Z,1003.04
2019-05-19T08:44:02.123Z,1003.03
2019-05-19T08:45:02.108Z,1003.11
2019-05-19T08:46:02.107Z,1003.07
2019-05-19T08:47:02.068Z,1003.00
2019-05-19T08:48:02.058Z,1003.09
2019-05-19T08:49:02.075Z,1003.01
2019-05-19T08:50:02.131Z,1003.05
2019-05-19T08:51:02.039Z,1003.06
2019-05-19T08:52:02.063Z,1003.05
2019-05-19T08:53:02.008Z,1003.04
2019-05-19T08:54:13.876Z,1002.98
2019-05-19T08:55:03.033Z,1003.06
2019-05-19T08:56:02.008Z,1003.03
2019-05-19T08:57:01.995Z,1003.01
2019-05-19T08:58:01.961Z,1003.02
2019-05-19T08:59:01.941Z,1003.16
2019-05-19T09:00:02.027Z,1003.09
2019-05-19T09:01:01.945Z,1003.05
2019-05-19T09:02:01.987Z,1003.04
2019-05-19T09:03:02.084Z,1003.06
2019-05-19T09:04:01.896Z,1003.05
2019-05-19T09:05:01.875Z,1003.15
2019-05-19T09:06:01.926Z,1003.09
2019-05-19T09:07:01.856Z,1003.09
2019-05-19T09:08:01.853Z,1003.14
2019-05-19T09:09:01.844Z,1003.08
2019-05-19T09:10:01.829Z,1003.05
2019-05-19T09:11:01.997Z,1003.06
2019-05-19T09:12:01.808Z,1003.09
2019-05-19T09:13:01.824Z,1003.12
2019-05-19T09:14:01.795Z,1003.08
2019-05-19T09:15:01.790Z,1003.12
2019-05-19T09:16:01.830Z,1003.08
2019-05-19T09:17:02.036Z,1003.08
2019-05-19T09:18:01.780Z,1003.10
2019-05-19T09:19:01.748Z,1003.13
2019-05-19T09:20:01.835Z,1003.10
2019-05-19T09:22:02.876Z,1003.07
2019-05-19T09:23:01.923Z,1003.02
2019-05-19T09:24:01.701Z,1003.05
2019-05-19T09:25:02.128Z,1002.99
2019-05-19T09:26:01.673Z,1003.01
2019-05-19T09:27:01.901Z,1002.98
2019-05-19T09:28:01.633Z,1003.00
2019-05-19T09:29:01.923Z,1002.96
2019-05-19T09:30:01.619Z,1002.90
2019-05-19T09:31:01.930Z,1002.92
2019-05-19T09:32:01.738Z,1002.94
2019-05-19T09:33:01.658Z,1002.93
2019-05-19T09:34:01.574Z,1002.92
2019-05-19T09:35:01.571Z,1002.93
2019-05-19T09:36:01.572Z,1002.95
2019-05-19T09:37:01.552Z,1002.93
2019-05-19T09:38:01.585Z,1002.90
2019-05-19T09:39:01.524Z,1002.97
2019-05-19T09:40:01.507Z,1002.89
2019-05-19T09:41:01.540Z,1002.88
2019-05-19T09:42:01.527Z,1002.93
2019-05-19T09:43:01.489Z,1002.87
2019-05-19T09:44:01.465Z,1002.92
2019-05-19T09:45:01.457Z,1002.86
2019-05-19T09:46:01.470Z,1002.83
2019-05-19T09:47:01.443Z,1002.88
2019-05-19T09:48:01.429Z,1002.84
2019-05-19T09:49:01.430Z,1002.82
2019-05-19T09:50:01.422Z,1002.82
2019-05-19T09:51:01.414Z,1002.88
2019-05-19T09:52:01.373Z,1002.91
2019-05-19T09:53:01.367Z,1002.84
2019-05-19T09:54:01.363Z,1002.87
2019-05-19T09:55:01.370Z,1002.89
2019-05-19T09:56:01.362Z,1002.89
2019-05-19T09:57:01.344Z,1002.85
2019-05-19T09:58:01.312Z,1002.88
2019-05-19T09:59:01.309Z,1002.85
2019-05-19T10:00:01.301Z,1002.84
2019-05-19T10:01:01.314Z,1002.80
2019-05-19T10:02:01.280Z,1002.80
2019-05-19T10:03:01.266Z,1002.76
2019-05-19T10:04:01.253Z,1002.80
2019-05-19T10:05:01.274Z,1002.88
2019-05-19T10:06:01.273Z,1002.81
2019-05-19T10:07:01.728Z,1002.82
2019-05-19T10:08:01.208Z,1002.74
2019-05-19T10:09:01.197Z,1002.77
2019-05-19T10:10:01.222Z,1002.76
2019-05-19T10:11:01.207Z,1002.77
2019-05-19T10:12:01.198Z,1002.77
2019-05-19T10:13:01.191Z,1002.81
2019-05-19T10:14:01.147Z,1002.81
2019-05-19T10:15:01.378Z,1002.76
2019-05-19T10:16:01.158Z,1002.80
2019-05-19T10:17:01.392Z,1002.78
2019-05-19T10:18:01.151Z,1002.80
2019-05-19T10:19:01.094Z,1002.78
2019-05-19T10:20:01.081Z,1002.75
2019-05-19T10:21:01.102Z,1002.79
2019-05-19T10:22:01.064Z,1002.74
2019-05-19T10:23:01.075Z,1002.78
2019-05-19T10:24:01.055Z,1002.78
2019-05-19T10:25:20.263Z,1002.73
2019-05-19T10:26:02.053Z,1002.70
2019-05-19T10:27:01.011Z,1002.73
2019-05-19T10:28:01.022Z,1002.72
2019-05-19T10:29:01.035Z,1002.73
2019-05-19T10:30:01.740Z,1002.71
2019-05-19T10:31:00.985Z,1002.69
2019-05-19T10:32:00.971Z,1002.68
2019-05-19T10:33:00.950Z,1002.65
2019-05-19T10:34:00.961Z,1002.63
2019-05-19T10:35:00.927Z,1002.66
2019-05-19T10:36:00.935Z,1002.60
2019-05-19T10:37:00.940Z,1002.66
2019-05-19T10:38:00.896Z,1002.65
2019-05-19T10:39:00.891Z,1002.62
2019-05-19T10:40:00.888Z,1002.58
2019-05-19T10:41:00.869Z,1002.57
2019-05-19T10:42:00.893Z,1002.57
2019-05-19T10:43:00.842Z,1002.59
2019-05-19T10:44:00.961Z,1002.59
2019-05-19T10:45:00.891Z,1002.60
2019-05-19T10:46:00.822Z,1002.58
2019-05-19T10:47:01.351Z,1002.59
2019-05-19T10:48:00.819Z,1002.57
2019-05-19T10:49:00.780Z,1002.56
2019-05-19T10:50:00.775Z,1002.56
2019-05-19T10:51:00.759Z,1002.57
2019-05-19T10:52:00.766Z,1002.52
2019-05-19T10:53:00.769Z,1002.49
2019-05-19T10:54:00.740Z,1002.52
2019-05-19T10:55:00.720Z,1002.52
2019-05-19T10:56:00.714Z,1002.49
2019-05-19T10:57:00.733Z,1002.49
2019-05-19T10:58:00.696Z,1002.50
2019-05-19T10:59:00.712Z,1002.49
2019-05-19T11:00:00.672Z,1002.47
2019-05-19T11:01:00.659Z,1002.47
2019-05-19T11:02:00.664Z,1002.46
2019-05-19T11:03:00.666Z,1002.41
2019-05-19T11:04:00.636Z,1002.46
2019-05-19T11:05:00.620Z,1002.46
2019-05-19T11:06:00.620Z,1002.46
2019-05-19T11:08:01.747Z,1002.62
2019-05-19T11:09:21.572Z,1002.73
2019-05-19T11:13:51.694Z,1002.49
2019-05-19T11:16:48.745Z,1002.51
2019-05-19T11:17:48.787Z,1002.43
2019-05-19T11:18:48.720Z,1002.49
2019-05-19T11:19:48.696Z,1002.42
2019-05-19T11:20:48.705Z,1002.47
2019-05-19T11:21:48.680Z,1002.38
2019-05-19T11:22:48.727Z,1002.68
2019-05-19T11:23:48.652Z,1002.68
2019-05-19T11:24:48.666Z,1002.65
2019-05-19T11:25:51.419Z,1002.61
2019-05-19T11:26:48.670Z,1002.64
2019-05-19T11:27:48.619Z,1002.58
2019-05-19T11:28:48.630Z,1002.34
2019-05-19T11:29:48.599Z,1002.31
2019-05-19T11:30:48.597Z,1002.66
2019-05-19T11:31:48.580Z,1002.60
2019-05-19T11:32:48.579Z,1002.61
2019-05-19T11:33:48.578Z,1002.61
2019-05-19T11:34:48.570Z,1002.63
2019-05-19T11:35:48.542Z,1002.56
2019-05-19T11:36:48.535Z,1002.56
2019-05-19T11:37:48.545Z,1002.57
2019-05-19T11:38:48.549Z,1002.54
2019-05-19T11:39:48.524Z,1002.46
2019-05-19T11:40:48.530Z,1002.52
2019-05-19T11:41:48.576Z,1002.58
2019-05-19T11:42:48.487Z,1002.52
2019-05-19T11:43:48.491Z,1002.53
2019-05-19T11:44:48.464Z,1002.51
2019-05-19T11:45:48.498Z,1002.44
2019-05-19T11:46:48.469Z,1002.37
2019-05-19T11:47:48.441Z,1002.47
2019-05-19T11:48:48.452Z,1002.43
2019-05-19T11:49:48.451Z,1002.21
2019-05-19T11:50:48.419Z,1002.13
2019-05-19T11:51:48.434Z,1002.21
2019-05-19T11:52:48.394Z,1002.16
2019-05-19T11:53:48.388Z,1002.25
2019-05-19T11:54:48.385Z,1002.24
2019-05-19T11:55:48.440Z,1002.24
2019-05-19T11:56:48.400Z,1002.22
2019-05-19T11:57:48.357Z,1002.18
2019-05-19T11:58:48.335Z,1002.50
2019-05-19T11:59:48.342Z,1002.48
2019-05-19T12:00:48.383Z,1002.48
2019-05-19T12:01:48.341Z,1002.37
2019-05-19T12:02:48.304Z,1002.38
2019-05-19T12:03:48.297Z,1002.34
2019-05-19T12:04:48.284Z,1002.38
2019-05-19T12:05:48.273Z,1002.16
2019-05-19T12:06:48.290Z,1002.38
2019-05-19T12:07:48.257Z,1002.37
2019-05-19T12:08:48.249Z,1002.30
2019-05-19T12:09:48.246Z,1002.29
2019-05-19T12:10:48.233Z,1002.28
2019-05-19T12:11:48.268Z,1002.04
2019-05-19T12:12:48.223Z,1002.08